Michael Klein

Chefscout - VfB Stuttgart
3 Apr 2027
Samstag
Verarbeitung

Persönlichkeit

Anpassungsfähigkeit (18) Ehrgeiz (17) Kontroverse (18) Loyalität (8) Druck (14) Professionalität (20) Fairness (11) Temperament (6)

Profil

Trainerstil Demokratisch
Lizenz Kontinentale C
Entschlossenheit 11
Menschenführung 8
Motivation 15
Disziplin 9
Arbeitszufriedenheit
100%
Ermüdung
0%
Rolle Chefscout
Gehalt 42.9K p/W
Vertrag 14.03.2028

Leistung

Verhalten Gut
Trainingseffektivität
56%
Spielerentwicklung
40%
Verletzungsprävention
65%
Taktische Umsetzung
75%

Letzte Ereignisse

Spieler begutachtet jetzt
Nahm an einer Scouting-Besprechung teil jetzt
Empfahl ein Transferziel jetzt
Spieler begutachtet jetzt
Spieler begutachtet jetzt
Spieler begutachtet jetzt
Spieler begutachtet 7T her
Spieler begutachtet 7T her

Aktuell beobachtet

150
Spieler Verein Status Fähigkeit Vertrauen Beobachtet Zuletzt beobachtet Letzte Stimme
Taiwo Awoniyi Coventry City Aktiv 141 / 135 40% 4 02.04.2027 -
Yoane Wissa Newcastle United Aktiv 140 / 137 40% 2 02.04.2027 -
Luca Orellano Monterrey Aktiv 142 / 130 40% 4 02.04.2027 -
Cesar Corona Veracruz Aktiv 133 / 141 40% 8 01.04.2027 -
Diego López Valencia Aktiv 134 / 136 40% 3 01.04.2027 -
Hany Mukhtar Hamburger SV Aktiv 136 / 127 40% 4 31.03.2027 -
Lucas Boyé Alavés Aktiv 143 / 135 40% 10 31.03.2027 -
Soufiane Rahimi Al Ain Aktiv 138 / 135 40% 4 31.03.2027 -
Ferran Jutglà Celta Aktiv 135 / 140 40% 2 31.03.2027 -
Agustín Palavecino Cruz Azul Aktiv 131 / 147 40% 3 31.03.2027 -
Martin Terrier Bayer Leverkusen Aktiv 144 / 140 40% 9 30.03.2027 -
Pepê Porto Aktiv 146 / 144 40% 2 30.03.2027 -
Che Adams Torino Aktiv 143 / 135 40% 2 29.03.2027 -
Isi Palazón Rayo Vallecano Aktiv 142 / 139 40% 1 28.03.2027 -
Haissem Hassan Bloemfontein Celtic Aktiv 127 / 130 40% 2 26.03.2027 -
Alejandro Zendejas Club America Aktiv 140 / 142 40% 1 26.03.2027 -
Marco Asensio Fenerbahce Aktiv 154 / 154 40% 1 26.03.2027 -
Andrés Martín Racing Santander Aktiv 138 / 134 40% 4 25.03.2027 -
Marcel Ruiz Toluca Aktiv 149 / 154 40% 2 25.03.2027 -
Zizo Al Ahly Aktiv 143 / 136 40% 1 25.03.2027 -
Michy Fellaini KV Oostende Aktiv 133 / 142 40% 4 24.03.2027 -
Yuri Alberto Corinthians Aktiv 140 / 142 40% 5 24.03.2027 -
Odsonne Édouard RC Lens Aktiv 137 / 136 40% 1 23.03.2027 -
Esteban Lepaul Stade Rennais Aktiv 135 / 136 40% 2 20.03.2027 -
Haris Tabaković Red Bull Salzburg Aktiv 136 / 138 40% 1 20.03.2027 -
Musa Barrow Al-Khaleej Aktiv 140 / 141 40% 5 19.03.2027 -
Gonzalo Plata Dinamo Moscow Aktiv 140 / 140 40% 7 18.03.2027 -
Abel Ruiz Girona Aktiv 138 / 140 40% 1 18.03.2027 -
Iñaki Williams Athletic Bilbao Abgelehnt 161 / 158 40% 5 17.03.2027 Ablehnen
Leandro Trossard Besiktas Aktiv 149 / 156 40% 7 17.03.2027 -
Alexander Sørloth Atlético Madrid Aktiv 150 / 151 40% 3 17.03.2027 -
Ricardo Horta Braga Aktiv 146 / 144 40% 4 16.03.2027 -
Steven Bergwijn Al-Ittihad Aktiv 147 / 159 40% 2 13.03.2027 -
Santiago Mina VfL Wolfsburg Aktiv 149 / 137 40% 3 12.03.2027 -
Lorenzo Colombo Genoa Aktiv 132 / 133 40% 2 12.03.2027 -
Zakaria Aboukhlal Torino Aktiv 139 / 132 40% 1 11.03.2027 -
Umar Sadiq Valencia Aktiv 137 / 144 40% 2 10.03.2027 -
Tim Kleindienst Borussia Mönchengladbach Aktiv 154 / 156 40% 6 10.03.2027 -
Jorge De Frutos Rayo Vallecano Aktiv 145 / 153 40% 4 09.03.2027 -
Hamza Igamane LOSC Lille Aktiv 143 / 140 40% 1 09.03.2027 -
Jean-Luc Morin Tours Abgelehnt 142 / 144 40% 1 08.03.2027 Mehr Infos nötig
Adama Traoré Deportivo La Coruña Aktiv 138 / 144 40% 2 05.03.2027 -
Carlos Rodríguez Cruz Azul Aktiv 144 / 138 40% 1 05.03.2027 -
Roberto Alvarado Guadalajara Aktiv 152 / 149 40% 1 05.03.2027 -
Kerem Aktürkoğlu Fenerbahce Aktiv 147 / 130 40% 4 27.02.2027 -
Luka Jović AEK Aktiv 144 / 137 40% 1 27.02.2027 -
Malcom Al Jazira Aktiv 143 / 144 40% 1 27.02.2027 -
Sebastián Córdova Pumas UNAM Aktiv 126 / 140 40% 1 27.02.2027 -
Orbelín Pineda Monterrey Aktiv 132 / 129 40% 1 25.02.2027 -
Óliver Monterrey Aktiv 148 / 124 40% 1 25.02.2027 -
Marcos Llorente Atlético Madrid Aktiv 160 / 156 40% 2 24.02.2027 -
Galeno Al-Ahli Aktiv 141 / 145 40% 1 22.02.2027 -
Deniz Undav Manchester United Aktiv 157 / 160 40% 1 19.02.2027 -
Nicolás Ibáñez Cruz Azul Aktiv 135 / 124 40% 1 17.02.2027 -
Jorge Pascual Granada Aktiv 134 / 135 40% 4 16.02.2027 -
Ludovic Ajorque Stade Brestois Aktiv 141 / 141 40% 1 15.02.2027 -
Luiz Henrique Zenit Aktiv 154 / 133 40% 1 12.02.2027 -
Toni Martínez Alavés Aktiv 138 / 138 40% 3 10.02.2027 -
Karl Etta Eyong Levante Aktiv 147 / 141 40% 2 08.02.2027 -
Yuito Suzuki SC Freiburg Aktiv 134 / 141 40% 2 06.02.2027 -
Jason Januzaj Mouscron Abgelehnt 147 / 142 40% 3 05.02.2027 Ablehnen
Ernest Nuamah Olympique Lyonnais Aktiv 133 / 135 40% 1 04.02.2027 -
José Manuel López Palmeiras Aktiv 136 / 131 40% 2 02.02.2027 -
Paulinho Palmeiras Aktiv 139 / 149 40% 1 01.02.2027 -
Mohamed-Ali Cho Hull City Aktiv 134 / 130 40% 1 01.02.2027 -
George Hirst Stoke City Aktiv 139 / 135 40% 2 11.01.2027 -
Ibrahim Maza Bayer Leverkusen Verloren 146 / 148 76% 1 11.01.2027 Befürworten
Jonathan Dubasin Osasuna Aktiv 139 / 146 40% 1 11.01.2027 -
Đorđe Petrović Bournemouth Aktiv 152 / 154 40% 5 03.01.2027 -
Robin Roefs Sunderland Aktiv 147 / 140 40% 8 03.01.2027 -
Ruslan Neshcheret Dynamo Kyiv Aktiv 116 / 132 40% 1 03.01.2027 -
Karl Hein Werder Bremen Aktiv 132 / 147 40% 7 02.01.2027 -
Mads Hermansen West Ham United Aktiv 137 / 134 40% 1 02.01.2027 -
Kaio Jorge Cruzeiro Aktiv 138 / 140 68% 1 01.01.2027 Befürworten
Carl Rushworth Coventry City Aktiv 136 / 141 40% 11 30.12.2026 -
Christian Walton Ipswich Town Aktiv 133 / 134 40% 12 30.12.2026 -
Radek Vítek Middlesbrough Aktiv 138 / 129 40% 10 30.12.2026 -
Álvaro Fernández Sevilla Aktiv 142 / 144 40% 7 28.12.2026 -
David Raya Arsenal Aktiv 161 / 154 40% 9 28.12.2026 -
Iñaki Peña Panathinaikos Aktiv 139 / 149 40% 1 28.12.2026 -
Jordan Pickford Everton Aktiv 153 / 161 40% 10 26.12.2026 -
Alfonso Herrero Málaga Aktiv 127 / 122 40% 6 25.12.2026 -
James Trafford Leeds United Aktiv 143 / 142 40% 5 25.12.2026 -
Álex Remiro Real Sociedad Aktiv 153 / 150 40% 6 24.12.2026 -
Marvin Schwäbe Köln Aktiv 147 / 135 40% 9 23.12.2026 -
Timon Wellenreuther VfL Wolfsburg Aktiv 135 / 133 40% 4 23.12.2026 -
Mio Backhaus SC Freiburg Aktiv 127 / 136 40% 6 22.12.2026 -
Dean Henderson Crystal Palace Aktiv 150 / 144 40% 6 21.12.2026 -
Hugo Souza Corinthians Aktiv 142 / 139 40% 4 21.12.2026 -
Carlos Miguel Palmeiras Aktiv 138 / 136 40% 1 21.12.2026 -
Jakub Stolarczyk Leicester City Aktiv 136 / 139 40% 7 20.12.2026 -
Moritz Nicolas Borussia Mönchengladbach Aktiv 133 / 128 40% 9 20.12.2026 -
Eddie Nketiah Crystal Palace Aktiv 137 / 142 40% 1 20.12.2026 -
Jean-Luc Morin Tours Verloren 137 / 146 40% 2 19.12.2026 Mehr Infos nötig
Robin Risser RC Lens Aktiv 135 / 139 40% 2 17.12.2026 -
Pascal Loretz Luzern Aktiv 123 / 134 40% 1 17.12.2026 -
Marvin Keller Young Boys Aktiv 145 / 133 40% 11 16.12.2026 -
Antonio Sivera Alavés Aktiv 139 / 139 40% 7 16.12.2026 -
Caoimhin Kelleher Brentford Aktiv 149 / 151 40% 5 14.12.2026 -
Pedro Flamengo Aktiv 138 / 143 40% 3 14.12.2026 -
Carlos Acevedo Santos Laguna Aktiv 123 / 119 40% 4 14.12.2026 -
Talisca Fenerbahce Aktiv 138 / 137 40% 2 14.12.2026 -
Wladimiro Falcone Lecce Aktiv 143 / 139 40% 1 13.12.2026 -
Grégoire Coudert Burnley Aktiv 125 / 127 40% 4 12.12.2026 -
Carlos Moreno Pachuca Aktiv 122 / 128 40% 2 12.12.2026 -
Anthony Patterson Wrexham Aktiv 126 / 128 40% 3 10.12.2026 -
Andreas Jungdal Westerlo Aktiv 120 / 129 40% 1 10.12.2026 -
Aarón Escandell Oviedo Aktiv 135 / 126 40% 9 07.12.2026 -
Axel Alderweireld KV Oostende Aktiv 147 / 140 40% 1 07.12.2026 -
Robin Zentner Mainz 05 Aktiv 136 / 139 40% 4 02.12.2026 -
Álvaro Valles Betis Aktiv 141 / 135 40% 2 01.12.2026 -
Gregor Kobel Borussia Dortmund Aktiv 162 / 174 40% 4 01.12.2026 -
Gabriel Brazão Santos Aktiv 138 / 132 40% 2 01.12.2026 -
Nicolás Sumavil Platense Aktiv 121 / 121 40% 1 01.12.2026 -
Dmytro Riznyk Shakhtar Aktiv 132 / 148 40% 1 28.11.2026 -
Lazar Carević Famalicao Aktiv 132 / 123 40% 1 28.11.2026 -
Anthony Racioppi Sion Aktiv 127 / 125 40% 1 28.11.2026 -
Michael Cooper Sheffield United Aktiv 124 / 124 40% 5 27.11.2026 -
Franco Petroli Olympique de Marseille Aktiv 133 / 125 40% 2 27.11.2026 -
Stole Dimitrievski Valencia Aktiv 138 / 142 40% 6 19.11.2026 -
Luis Malagón Club America Aktiv 141 / 126 40% 9 16.11.2026 -
Felipe Zenobio Tigre Aktiv 133 / 130 40% 5 08.11.2026 -
Alexis Vega Toluca Abgelehnt 153 / 136 40% 2 05.11.2026 Mehr Infos nötig
Tomás Marchiori Vélez Aktiv 131 / 131 40% 1 04.11.2026 -
Luiz Júnior Villarreal Aktiv 147 / 141 40% 2 31.10.2026 -
Yehvann Diouf OGC Nice Aktiv 143 / 137 40% 1 31.10.2026 -
Jean America de Cali Aktiv 122 / 124 40% 2 27.10.2026 -
Guilherme Fernandes Córdoba Aktiv 125 / 131 40% 5 24.10.2026 -
Pau Víctor Braga Aktiv 142 / 136 40% 1 24.10.2026 -
Carlos Vinícius Grêmio Aktiv 139 / 130 40% 2 22.10.2026 -
Ionuţ Radu Celta Aktiv 144 / 133 40% 3 15.10.2026 -
Christantus Uche Getafe Aktiv 141 / 130 40% 1 11.10.2026 -
Mike Maignan AC Milan Aktiv 166 / 164 40% 1 09.10.2026 -
Mile Svilar AS Roma Aktiv 160 / 153 40% 1 03.10.2026 -
Kepa Arrizabalaga Arsenal Aktiv 150 / 150 40% 2 01.10.2026 -
Daniel FC Dallas Aktiv 138 / 145 40% 1 28.09.2026 -
Zack Steffen Colorado Rapids Aktiv 124 / 132 40% 1 27.09.2026 -
Jonas Urbig Bayern Munich Aktiv 129 / 133 40% 1 26.09.2026 -
Chris Brady Chicago Fire Aktiv 121 / 131 40% 2 21.09.2026 -
Robert Sánchez Chelsea Aktiv 151 / 154 40% 1 21.09.2026 -
Giorgi Mamardashvili Bayern Munich Aktiv 150 / 151 40% 3 18.09.2026 -
Justin Hammel Grasshopper Aktiv 119 / 110 40% 2 18.09.2026 -
Senne Lammens Manchester United Aktiv 144 / 148 40% 1 17.09.2026 -
Diego Conde Villarreal Aktiv 134 / 131 40% 1 15.09.2026 -
Gorka Guruzeta Athletic Bilbao Aktiv 139 / 151 40% 1 31.08.2026 -
Kenny Tete Fulham Aktiv 145 / 145 40% 1 25.08.2026 -
Javi Puado Espanyol Aktiv 150 / 149 40% 1 25.08.2026 -
Hidemasa Morita Hull City Aktiv 137 / 141 40% 1 25.08.2026 -
Ángel Correa River Plate Aktiv 148 / 136 40% 1 24.08.2026 -
Petar Musa FC Dallas Aktiv 137 / 131 40% 2 19.08.2026 -